sensor_id;sensor_type;location;lat;lon;timestamp;pressure;altitude;pressure_sealevel;temperature;humidity
76632;BME280;65526;48.578;-4.520;2023-04-24T00:01:04;100923.13;;;9.76;80.94
76632;BME280;65526;48.578;-4.520;2023-04-24T00:03:33;100956.78;;;9.75;80.90
76632;BME280;65526;48.578;-4.520;2023-04-24T00:05:59;100471.19;;;7.20;80.77
76632;BME280;65526;48.578;-4.520;2023-04-24T00:08:26;100940.56;;;9.77;81.14
76632;BME280;65526;48.578;-4.520;2023-04-24T00:10:53;100908.91;;;9.78;81.10
76632;BME280;65526;48.578;-4.520;2023-04-24T00:13:19;100191.59;;;5.12;80.87
76632;BME280;65526;48.578;-4.520;2023-04-24T00:15:46;100199.28;;;5.53;80.66
76632;BME280;65526;48.578;-4.520;2023-04-24T00:18:12;100072.81;;;4.76;80.89
76632;BME280;65526;48.578;-4.520;2023-04-24T00:20:38;100629.44;;;7.76;81.31
76632;BME280;65526;48.578;-4.520;2023-04-24T00:23:05;100417.88;;;6.52;80.66
76632;BME280;65526;48.578;-4.520;2023-04-24T00:25:32;100944.84;;;9.74;81.06
76632;BME280;65526;48.578;-4.520;2023-04-24T00:27:58;99934.28;;;3.82;80.65
76632;BME280;65526;48.578;-4.520;2023-04-24T00:30:24;100657.91;;;7.85;81.06
76632;BME280;65526;48.578;-4.520;2023-04-24T00:32:51;100478.28;;;7.00;80.81
76632;BME280;65526;48.578;-4.520;2023-04-24T00:35:17;100147.44;;;4.83;80.76
76632;BME280;65526;48.578;-4.520;2023-04-24T00:37:45;100355.13;;;6.32;81.25
76632;BME280;65526;48.578;-4.520;2023-04-24T00:40:12;100429.31;;;6.25;81.07
76632;BME280;65526;48.578;-4.520;2023-04-24T00:42:40;100028.06;;;4.15;80.84
76632;BME280;65526;48.578;-4.520;2023-04-24T00:45:06;100709.91;;;8.00;81.04
76632;BME280;65526;48.578;-4.520;2023-04-24T00:47:33;100420.41;;;6.19;81.25
76632;BME280;65526;48.578;-4.520;2023-04-24T00:50:04;100225.00;;;4.76;80.83
76632;BME280;65526;48.578;-4.520;2023-04-24T00:52:37;100583.72;;;7.49;81.31
76632;BME280;65526;48.578;-4.520;2023-04-24T00:55:07;100672.50;;;7.94;81.31
76632;BME280;65526;48.578;-4.520;2023-04-24T00:57:34;100470.53;;;6.39;81.22
76632;BME280;65526;48.578;-4.520;2023-04-24T01:00:00;100060.41;;;4.35;80.87
76632;BME280;65526;48.578;-4.520;2023-04-24T01:02:27;100560.78;;;7.48;81.14
76632;BME280;65526;48.578;-4.520;2023-04-24T01:04:53;100228.41;;;5.16;80.98
76632;BME280;65526;48.578;-4.520;2023-04-24T01:07:20;100396.75;;;6.56;81.18
76632;BME280;65526;48.578;-4.520;2023-04-24T01:09:47;100019.81;;;4.24;80.90
76632;BME280;65526;48.578;-4.520;2023-04-24T01:12:15;100311.69;;;6.12;81.35
76632;BME280;65526;48.578;-4.520;2023-04-24T01:14:44;100944.25;;;9.69;81.37
76632;BME280;65526;48.578;-4.520;2023-04-24T01:17:10;100884.13;;;9.73;81.21
76632;BME280;65526;48.578;-4.520;2023-04-24T01:19:37;100588.69;;;7.93;81.23
76632;BME280;65526;48.578;-4.520;2023-04-24T01:22:09;100042.28;;;4.34;80.54
76632;BME280;65526;48.578;-4.520;2023-04-24T01:24:36;100373.66;;;6.61;81.11
76632;BME280;65526;48.578;-4.520;2023-04-24T01:27:04;100693.34;;;8.21;81.31
76632;BME280;65526;48.578;-4.520;2023-04-24T01:29:31;100457.16;;;7.25;80.83
76632;BME280;65526;48.578;-4.520;2023-04-24T01:31:57;100341.53;;;6.56;80.83
76632;BME280;65526;48.578;-4.520;2023-04-24T01:34:24;100240.78;;;5.57;80.46
76632;BME280;65526;48.578;-4.520;2023-04-24T01:36:51;100582.88;;;8.07;80.95
76632;BME280;65526;48.578;-4.520;2023-04-24T01:39:18;100735.78;;;8.84;81.43
76632;BME280;65526;48.578;-4.520;2023-04-24T01:41:46;100420.13;;;6.88;81.31
76632;BME280;65526;48.578;-4.520;2023-04-24T01:44:13;100631.28;;;8.22;81.16
76632;BME280;65526;48.578;-4.520;2023-04-24T01:46:41;100877.00;;;9.84;81.56
76632;BME280;65526;48.578;-4.520;2023-04-24T01:49:07;100654.22;;;8.52;80.92
76632;BME280;65526;48.578;-4.520;2023-04-24T01:51:34;100233.47;;;6.08;80.96
76632;BME280;65526;48.578;-4.520;2023-04-24T01:54:00;100906.81;;;10.28;81.28
76632;BME280;65526;48.578;-4.520;2023-04-24T01:56:29;100654.84;;;8.57;80.78
76632;BME280;65526;48.578;-4.520;2023-04-24T01:58:56;100577.78;;;8.39;81.35
76632;BME280;65526;48.578;-4.520;2023-04-24T02:01:24;100361.88;;;7.02;81.52
76632;BME280;65526;48.578;-4.520;2023-04-24T02:03:51;100616.06;;;8.37;81.96
76632;BME280;65526;48.578;-4.520;2023-04-24T02:06:18;100910.28;;;10.38;82.17
76632;BME280;65526;48.578;-4.520;2023-04-24T02:08:44;100255.94;;;6.27;81.92
76632;BME280;65526;48.578;-4.520;2023-04-24T02:11:11;100902.50;;;10.31;82.21
76632;BME280;65526;48.578;-4.520;2023-04-24T02:13:37;100676.72;;;8.71;82.87
76632;BME280;65526;48.578;-4.520;2023-04-24T02:16:04;100241.09;;;6.11;82.81
76632;BME280;65526;48.578;-4.520;2023-04-24T02:18:30;100169.59;;;5.59;82.60
76632;BME280;65526;48.578;-4.520;2023-04-24T02:20:57;100364.38;;;6.95;82.90
76632;BME280;65526;48.578;-4.520;2023-04-24T02:23:23;100200.66;;;5.77;83.02
76632;BME280;65526;48.578;-4.520;2023-04-24T02:25:50;100318.78;;;6.59;82.84
76632;BME280;65526;48.578;-4.520;2023-04-24T02:28:17;100935.38;;;10.17;83.07
76632;BME280;65526;48.578;-4.520;2023-04-24T02:30:43;100620.44;;;8.38;83.05
76632;BME280;65526;48.578;-4.520;2023-04-24T02:33:11;100396.94;;;7.10;82.81
76632;BME280;65526;48.578;-4.520;2023-04-24T02:35:37;100668.81;;;8.40;82.88
76632;BME280;65526;48.578;-4.520;2023-04-24T02:38:04;100315.44;;;6.45;83.40
76632;BME280;65526;48.578;-4.520;2023-04-24T02:40:30;100268.09;;;5.96;82.97
76632;BME280;65526;48.578;-4.520;2023-04-24T02:42:58;100380.81;;;6.91;83.02
76632;BME280;65526;48.578;-4.520;2023-04-24T02:45:24;100639.94;;;8.20;82.87
76632;BME280;65526;48.578;-4.520;2023-04-24T02:47:51;100450.88;;;7.16;82.67
76632;BME280;65526;48.578;-4.520;2023-04-24T02:50:17;100988.63;;;10.10;82.97
76632;BME280;65526;48.578;-4.520;2023-04-24T02:52:43;100658.63;;;8.23;82.75
76632;BME280;65526;48.578;-4.520;2023-04-24T02:55:10;100925.31;;;10.04;83.10
76632;BME280;65526;48.578;-4.520;2023-04-24T02:57:37;100982.03;;;10.03;83.00
76632;BME280;65526;48.578;-4.520;2023-04-24T03:00:04;100780.41;;;9.11;82.45
76632;BME280;65526;48.578;-4.520;2023-04-24T03:02:32;100904.19;;;9.90;82.97
76632;BME280;65526;48.578;-4.520;2023-04-24T03:05:00;100731.09;;;8.34;82.84
76632;BME280;65526;48.578;-4.520;2023-04-24T03:07:26;100754.34;;;8.42;82.93
76632;BME280;65526;48.578;-4.520;2023-04-24T03:09:52;100342.75;;;6.38;82.75
76632;BME280;65526;48.578;-4.520;2023-04-24T03:12:19;100710.19;;;8.07;83.05
76632;BME280;65526;48.578;-4.520;2023-04-24T03:14:45;100930.56;;;9.84;83.26
76632;BME280;65526;48.578;-4.520;2023-04-24T03:17:12;100686.97;;;8.00;83.15
76632;BME280;65526;48.578;-4.520;2023-04-24T03:19:39;100384.91;;;6.47;83.07
76632;BME280;65526;48.578;-4.520;2023-04-24T03:22:09;100676.22;;;7.98;83.25
76632;BME280;65526;48.578;-4.520;2023-04-24T03:24:36;100534.56;;;7.25;83.50
76632;BME280;65526;48.578;-4.520;2023-04-24T03:27:03;100837.25;;;8.97;83.90
76632;BME280;65526;48.578;-4.520;2023-04-24T03:29:53;100588.63;;;7.43;83.59
76632;BME280;65526;48.578;-4.520;2023-04-24T03:32:27;100467.91;;;6.89;83.17
76632;BME280;65526;48.578;-4.520;2023-04-24T03:34:53;100954.34;;;9.73;83.91
76632;BME280;65526;48.578;-4.520;2023-04-24T03:37:20;100405.22;;;6.51;83.45
76632;BME280;65526;48.578;-4.520;2023-04-24T03:39:55;100646.94;;;7.68;83.64
76632;BME280;65526;48.578;-4.520;2023-04-24T03:42:24;100666.91;;;7.73;83.45
76632;BME280;65526;48.578;-4.520;2023-04-24T03:44:55;100644.50;;;7.57;83.52
76632;BME280;65526;48.578;-4.520;2023-04-24T03:47:24;100628.03;;;7.70;83.64
76632;BME280;65526;48.578;-4.520;2023-04-24T03:49:53;100662.56;;;7.55;83.70
76632;BME280;65526;48.578;-4.520;2023-04-24T03:52:21;100988.38;;;9.62;84.01
76632;BME280;65526;48.578;-4.520;2023-04-24T03:54:48;100509.59;;;6.66;83.85
76632;BME280;65526;48.578;-4.520;2023-04-24T03:57:15;100545.88;;;6.94;84.01
76632;BME280;65526;48.578;-4.520;2023-04-24T03:59:53;100378.22;;;6.19;83.94
76632;BME280;65526;48.578;-4.520;2023-04-24T04:02:19;100175.75;;;4.92;83.34
76632;BME280;65526;48.578;-4.520;2023-04-24T04:04:46;100676.69;;;7.62;83.23
76632;BME280;65526;48.578;-4.520;2023-04-24T04:07:13;100548.50;;;6.91;83.93
76632;BME280;65526;48.578;-4.520;2023-04-24T04:09:41;100240.25;;;4.91;83.52
76632;BME280;65526;48.578;-4.520;2023-04-24T04:12:08;100608.31;;;7.42;83.59
76632;BME280;65526;48.578;-4.520;2023-04-24T04:14:34;100774.41;;;7.92;83.96
76632;BME280;65526;48.578;-4.520;2023-04-24T04:17:01;100930.38;;;9.48;84.25
76632;BME280;65526;48.578;-4.520;2023-04-24T04:19:29;101006.75;;;9.45;83.98
76632;BME280;65526;48.578;-4.520;2023-04-24T04:21:56;100187.44;;;4.81;83.80
76632;BME280;65526;48.578;-4.520;2023-04-24T04:24:44;100766.94;;;7.84;84.14
76632;BME280;65526;48.578;-4.520;2023-04-24T04:27:13;100366.41;;;5.84;83.85
76632;BME280;65526;48.578;-4.520;2023-04-24T04:29:47;100111.69;;;4.23;83.65
76632;BME280;65526;48.578;-4.520;2023-04-24T04:32:16;100728.78;;;7.98;83.96
76632;BME280;65526;48.578;-4.520;2023-04-24T04:34:43;100994.84;;;9.45;84.18
76632;BME280;65526;48.578;-4.520;2023-04-24T04:37:11;100716.50;;;7.78;83.79
76632;BME280;65526;48.578;-4.520;2023-04-24T04:39:46;100607.97;;;6.88;83.59
76632;BME280;65526;48.578;-4.520;2023-04-24T04:42:17;100710.19;;;7.69;83.75
76632;BME280;65526;48.578;-4.520;2023-04-24T04:44:45;100204.13;;;4.67;83.16
76632;BME280;65526;48.578;-4.520;2023-04-24T04:47:17;100946.56;;;8.87;83.83
76632;BME280;65526;48.578;-4.520;2023-04-24T04:49:44;101013.31;;;9.41;83.92
76632;BME280;65526;48.578;-4.520;2023-04-24T04:52:18;100714.09;;;7.68;83.45
76632;BME280;65526;48.578;-4.520;2023-04-24T04:54:48;100714.59;;;7.62;83.46
76632;BME280;65526;48.578;-4.520;2023-04-24T04:57:15;100391.69;;;5.86;83.13
76632;BME280;65526;48.578;-4.520;2023-04-24T04:59:41;100671.25;;;7.36;83.42
76632;BME280;65526;48.578;-4.520;2023-04-24T05:02:13;100708.97;;;7.41;83.57
76632;BME280;65526;48.578;-4.520;2023-04-24T05:04:40;100445.56;;;6.01;83.11
76632;BME280;65526;48.578;-4.520;2023-04-24T05:07:06;100662.84;;;7.24;83.43
76632;BME280;65526;48.578;-4.520;2023-04-24T05:09:37;100086.09;;;3.88;83.26
76632;BME280;65526;48.578;-4.520;2023-04-24T05:12:05;100985.72;;;9.15;84.06
76632;BME280;65526;48.578;-4.520;2023-04-24T05:14:36;100385.41;;;5.68;83.61
76632;BME280;65526;48.578;-4.520;2023-04-24T05:17:03;101036.28;;;9.12;83.85
76632;BME280;65526;48.578;-4.520;2023-04-24T05:19:30;100932.56;;;9.13;84.11
76632;BME280;65526;48.578;-4.520;2023-04-24T05:21:59;100685.31;;;7.05;83.83
76632;BME280;65526;48.578;-4.520;2023-04-24T05:24:29;100387.53;;;5.71;83.64
76632;BME280;65526;48.578;-4.520;2023-04-24T05:27:15;100735.16;;;7.43;83.87
76632;BME280;65526;48.578;-4.520;2023-04-24T05:29:42;100669.00;;;7.30;83.75
76632;BME280;65526;48.578;-4.520;2023-04-24T05:32:09;100402.09;;;5.80;83.83
76632;BME280;65526;48.578;-4.520;2023-04-24T05:34:36;100587.97;;;7.00;83.72
76632;BME280;65526;48.578;-4.520;2023-04-24T05:37:02;101017.03;;;9.16;84.07
76632;BME280;65526;48.578;-4.520;2023-04-24T05:39:34;100750.63;;;7.44;83.63
76632;BME280;65526;48.578;-4.520;2023-04-24T05:42:01;100622.09;;;7.04;83.40
76632;BME280;65526;48.578;-4.520;2023-04-24T05:44:29;100938.13;;;9.34;83.84
76632;BME280;65526;48.578;-4.520;2023-04-24T05:46:55;100251.06;;;4.62;83.22
76632;BME280;65526;48.578;-4.520;2023-04-24T05:49:23;100960.41;;;9.46;83.84
76632;BME280;65526;48.578;-4.520;2023-04-24T05:51:49;100078.53;;;4.02;83.20
76632;BME280;65526;48.578;-4.520;2023-04-24T05:54:17;100287.84;;;5.26;83.14
76632;BME280;65526;48.578;-4.520;2023-04-24T05:56:43;100962.59;;;9.61;83.27
76632;BME280;65526;48.578;-4.520;2023-04-24T05:59:13;101019.03;;;9.65;83.15
76632;BME280;65526;48.578;-4.520;2023-04-24T06:01:40;100556.81;;;7.29;83.15
76632;BME280;65526;48.578;-4.520;2023-04-24T06:04:13;100109.13;;;4.44;83.00
76632;BME280;65526;48.578;-4.520;2023-04-24T06:06:40;100519.97;;;6.61;83.69
76632;BME280;65526;48.578;-4.520;2023-04-24T06:09:06;100960.44;;;9.87;83.91
76632;BME280;65526;48.578;-4.520;2023-04-24T06:11:33;100477.34;;;6.88;83.34
76632;BME280;65526;48.578;-4.520;2023-04-24T06:14:00;100956.63;;;9.92;83.64
76632;BME280;65526;48.578;-4.520;2023-04-24T06:16:42;100487.72;;;6.91;83.01
76632;BME280;65526;48.578;-4.520;2023-04-24T06:19:29;101032.88;;;9.94;83.33
76632;BME280;65526;48.578;-4.520;2023-04-24T06:21:55;100754.59;;;8.19;83.15
76632;BME280;65526;48.578;-4.520;2023-04-24T06:24:21;101043.66;;;9.96;83.61
76632;BME280;65526;48.578;-4.520;2023-04-24T06:26:48;100698.16;;;8.03;83.04
76632;BME280;65526;48.578;-4.520;2023-04-24T06:29:14;100400.00;;;6.50;82.77
76632;BME280;65526;48.578;-4.520;2023-04-24T06:31:41;100128.00;;;4.79;82.43
76632;BME280;65526;48.578;-4.520;2023-04-24T06:34:07;100728.53;;;8.70;82.89
76632;BME280;65526;48.578;-4.520;2023-04-24T06:36:34;100501.06;;;6.89;82.50
76632;BME280;65526;48.578;-4.520;2023-04-24T06:39:01;100504.66;;;7.27;82.73
76632;BME280;65526;48.578;-4.520;2023-04-24T06:41:28;100662.19;;;8.03;82.89
76632;BME280;65526;48.578;-4.520;2023-04-24T06:43:55;100523.97;;;7.56;82.58
76632;BME280;65526;48.578;-4.520;2023-04-24T06:46:22;100117.59;;;5.11;82.55
76632;BME280;65526;48.578;-4.520;2023-04-24T06:48:52;100451.16;;;7.23;82.51
76632;BME280;65526;48.578;-4.520;2023-04-24T06:51:25;100262.84;;;6.12;82.54
76632;BME280;65526;48.578;-4.520;2023-04-24T06:53:53;100693.34;;;8.71;82.75
76632;BME280;65526;48.578;-4.520;2023-04-24T06:56:19;100347.53;;;6.58;82.45
76632;BME280;65526;48.578;-4.520;2023-04-24T06:58:46;100651.78;;;8.50;82.62
76632;BME280;65526;48.578;-4.520;2023-04-24T07:01:12;100730.06;;;8.89;82.82
76632;BME280;65526;48.578;-4.520;2023-04-24T07:03:39;100791.25;;;9.37;82.94
76632;BME280;65526;48.578;-4.520;2023-04-24T07:06:06;100688.28;;;8.94;82.98
76632;BME280;65526;48.578;-4.520;2023-04-24T07:08:32;100427.31;;;7.39;82.72
76632;BME280;65526;48.578;-4.520;2023-04-24T07:11:04;100535.03;;;8.07;82.95
76632;BME280;65526;48.578;-4.520;2023-04-24T07:13:31;100714.69;;;8.91;82.68
76632;BME280;65526;48.578;-4.520;2023-04-24T07:15:58;100428.06;;;7.48;82.68
76632;BME280;65526;48.578;-4.520;2023-04-24T07:18:24;100558.78;;;8.08;82.53
76632;BME280;65526;48.578;-4.520;2023-04-24T07:20:50;100980.09;;;10.81;83.04
76632;BME280;65526;48.578;-4.520;2023-04-24T07:23:19;100558.69;;;7.95;82.62
76632;BME280;65526;48.578;-4.520;2023-04-24T07:25:46;100488.38;;;7.96;82.37
76632;BME280;65526;48.578;-4.520;2023-04-24T07:28:12;100634.78;;;8.60;82.74
76632;BME280;65526;48.578;-4.520;2023-04-24T07:30:39;100710.25;;;9.44;82.73
76632;BME280;65526;48.578;-4.520;2023-04-24T07:33:05;100840.28;;;9.66;82.51
76632;BME280;65526;48.578;-4.520;2023-04-24T07:35:33;100528.84;;;8.22;82.29
76632;BME280;65526;48.578;-4.520;2023-04-24T07:38:03;100738.41;;;9.54;82.61
76632;BME280;65526;48.578;-4.520;2023-04-24T07:40:29;100414.38;;;7.73;82.22
76632;BME280;65526;48.578;-4.520;2023-04-24T07:42:55;100757.00;;;9.54;82.65
76632;BME280;65526;48.578;-4.520;2023-04-24T07:45:22;100955.97;;;11.34;82.73
76632;BME280;65526;48.578;-4.520;2023-04-24T07:47:50;100284.34;;;7.07;82.49
76632;BME280;65526;48.578;-4.520;2023-04-24T07:50:17;100227.03;;;6.54;83.17
76632;BME280;65526;48.578;-4.520;2023-04-24T07:52:43;100693.69;;;9.68;83.21
76632;BME280;65526;48.578;-4.520;2023-04-24T07:55:13;100637.84;;;9.12;83.53
76632;BME280;65526;48.578;-4.520;2023-04-24T07:57:39;100970.59;;;11.43;84.62
76632;BME280;65526;48.578;-4.520;2023-04-24T08:00:06;100302.19;;;7.09;84.62
76632;BME280;65526;48.578;-4.520;2023-04-24T08:02:37;100994.34;;;11.52;85.33
76632;BME280;65526;48.578;-4.520;2023-04-24T08:05:04;100725.50;;;9.83;84.75
76632;BME280;65526;48.578;-4.520;2023-04-24T08:07:31;100475.81;;;8.53;84.97
76632;BME280;65526;48.578;-4.520;2023-04-24T08:09:57;100343.25;;;7.40;84.44
76632;BME280;65526;48.578;-4.520;2023-04-24T08:12:25;100431.63;;;8.23;84.78
76632;BME280;65526;48.578;-4.520;2023-04-24T08:14:51;100322.00;;;7.32;84.74
76632;BME280;65526;48.578;-4.520;2023-04-24T08:17:18;100978.78;;;11.76;84.87
76632;BME280;65526;48.578;-4.520;2023-04-24T08:19:44;100628.66;;;9.33;84.22
76632;BME280;65526;48.578;-4.520;2023-04-24T08:22:14;100961.03;;;11.80;84.06
76632;BME280;65526;48.578;-4.520;2023-04-24T08:24:41;100544.84;;;9.03;82.26
76632;BME280;65526;48.578;-4.520;2023-04-24T08:27:08;100987.13;;;11.88;82.24
76632;BME280;65526;48.578;-4.520;2023-04-24T08:29:34;100546.81;;;9.02;81.96
76632;BME280;65526;48.578;-4.520;2023-04-24T08:32:01;100978.75;;;11.88;82.49
76632;BME280;65526;48.578;-4.520;2023-04-24T08:34:27;100659.00;;;9.62;82.03
76632;BME280;65526;48.578;-4.520;2023-04-24T08:36:54;100976.09;;;11.92;82.42
76632;BME280;65526;48.578;-4.520;2023-04-24T08:39:20;100974.09;;;11.92;83.13
76632;BME280;65526;48.578;-4.520;2023-04-24T08:41:48;101008.41;;;12.08;82.40
76632;BME280;65526;48.578;-4.520;2023-04-24T08:44:15;100838.03;;;10.98;82.15
76632;BME280;65526;48.578;-4.520;2023-04-24T08:46:46;100731.19;;;10.59;82.22
76632;BME280;65526;48.578;-4.520;2023-04-24T08:49:14;100305.13;;;7.79;80.72
76632;BME280;65526;48.578;-4.520;2023-04-24T08:51:44;100398.19;;;7.95;79.82
76632;BME280;65526;48.578;-4.520;2023-04-24T08:54:13;100622.19;;;9.29;80.24
76632;BME280;65526;48.578;-4.520;2023-04-24T08:56:40;100768.47;;;10.46;80.29
76632;BME280;65526;48.578;-4.520;2023-04-24T08:59:10;101008.81;;;12.22;79.95
76632;BME280;65526;48.578;-4.520;2023-04-24T09:01:37;100856.22;;;11.08;80.43
76632;BME280;65526;48.578;-4.520;2023-04-24T09:04:07;101023.69;;;11.74;80.79
76632;BME280;65526;48.578;-4.520;2023-04-24T09:06:34;100525.44;;;9.03;79.77
76632;BME280;65526;48.578;-4.520;2023-04-24T09:09:01;100273.22;;;7.48;80.36
76632;BME280;65526;48.578;-4.520;2023-04-24T09:11:29;100492.31;;;8.94;81.20
76632;BME280;65526;48.578;-4.520;2023-04-24T09:13:56;100225.38;;;7.36;80.78
76632;BME280;65526;48.578;-4.520;2023-04-24T09:16:25;100686.22;;;10.29;80.50
76632;BME280;65526;48.578;-4.520;2023-04-24T09:18:53;100596.31;;;9.85;80.57
76632;BME280;65526;48.578;-4.520;2023-04-24T09:21:21;100470.34;;;8.89;80.16
76632;BME280;65526;48.578;-4.520;2023-04-24T09:24:01;101094.38;;;12.62;80.04
76632;BME280;65526;48.578;-4.520;2023-04-24T09:26:34;100960.63;;;11.94;79.75
76632;BME280;65526;48.578;-4.520;2023-04-24T09:29:01;100410.97;;;8.66;79.14
76632;BME280;65526;48.578;-4.520;2023-04-24T09:31:29;101044.78;;;12.83;78.58
76632;BME280;65526;48.578;-4.520;2023-04-24T09:34:01;100291.19;;;8.45;78.49
76632;BME280;65526;48.578;-4.520;2023-04-24T09:36:37;100695.81;;;10.84;78.25
76632;BME280;65526;48.578;-4.520;2023-04-24T09:39:05;100864.38;;;11.81;78.59
76632;BME280;65526;48.578;-4.520;2023-04-24T09:41:34;101001.16;;;13.22;77.91
76632;BME280;65526;48.578;-4.520;2023-04-24T09:44:15;100470.47;;;9.93;77.51
76632;BME280;65526;48.578;-4.520;2023-04-24T09:46:43;100767.03;;;11.72;76.68
76632;BME280;65526;48.578;-4.520;2023-04-24T09:49:14;101061.69;;;13.18;75.90
76632;BME280;65526;48.578;-4.520;2023-04-24T09:51:43;100743.09;;;11.40;75.74
76632;BME280;65526;48.578;-4.520;2023-04-24T09:54:15;100559.28;;;9.93;73.92
76632;BME280;65526;48.578;-4.520;2023-04-24T09:56:45;101056.31;;;12.97;75.40
76632;BME280;65526;48.578;-4.520;2023-04-24T09:59:13;100419.97;;;9.24;74.00
76632;BME280;65526;48.578;-4.520;2023-04-24T10:01:41;100655.47;;;10.62;75.00
76632;BME280;65526;48.578;-4.520;2023-04-24T10:04:20;101070.03;;;12.75;75.58
76632;BME280;65526;48.578;-4.520;2023-04-24T10:06:48;100772.00;;;10.95;75.58
76632;BME280;65526;48.578;-4.520;2023-04-24T10:09:18;100218.34;;;7.83;75.67
76632;BME280;65526;48.578;-4.520;2023-04-24T10:11:47;100861.63;;;11.69;76.55
76632;BME280;65526;48.578;-4.520;2023-04-24T10:14:16;100603.72;;;9.93;76.40
76632;BME280;65526;48.578;-4.520;2023-04-24T10:16:44;100669.34;;;10.62;76.40
76632;BME280;65526;48.578;-4.520;2023-04-24T10:19:14;100448.63;;;8.79;75.44
76632;BME280;65526;48.578;-4.520;2023-04-24T10:21:43;100495.06;;;9.55;76.53
76632;BME280;65526;48.578;-4.520;2023-04-24T10:24:17;100613.78;;;9.86;77.15
76632;BME280;65526;48.578;-4.520;2023-04-24T10:26:44;101036.94;;;12.89;77.17
76632;BME280;65526;48.578;-4.520;2023-04-24T10:29:12;100899.88;;;11.84;77.10
76632;BME280;65526;48.578;-4.520;2023-04-24T10:31:41;100535.97;;;9.70;77.49
76632;BME280;65526;48.578;-4.520;2023-04-24T10:34:09;100499.13;;;9.45;77.28
76632;BME280;65526;48.578;-4.520;2023-04-24T10:36:39;100904.56;;;11.56;76.25
76632;BME280;65526;48.578;-4.520;2023-04-24T10:39:08;100589.03;;;9.93;77.30
76632;BME280;65526;48.578;-4.520;2023-04-24T10:41:38;100797.38;;;10.94;77.32
76632;BME280;65526;48.578;-4.520;2023-04-24T10:44:07;100840.50;;;11.40;78.03
76632;BME280;65526;48.578;-4.520;2023-04-24T10:46:34;101085.06;;;12.70;77.98
76632;BME280;65526;48.578;-4.520;2023-04-24T10:49:04;100609.63;;;9.68;77.29
76632;BME280;65526;48.578;-4.520;2023-04-24T10:51:45;100891.81;;;11.95;77.67
76632;BME280;65526;48.578;-4.520;2023-04-24T10:54:48;100643.00;;;10.32;77.78
76632;BME280;65526;48.578;-4.520;2023-04-24T11:00:15;101050.75;;;12.97;77.12
76632;BME280;65526;48.578;-4.520;2023-04-24T11:02:42;100738.31;;;10.85;77.22
76632;BME280;65526;48.578;-4.520;2023-04-24T11:05:16;100441.69;;;8.97;76.81
76632;BME280;65526;48.578;-4.520;2023-04-24T11:08:15;100875.41;;;12.05;76.24
76632;BME280;65526;48.578;-4.520;2023-04-24T11:10:47;100619.50;;;10.42;75.46
76632;BME280;65526;48.578;-4.520;2023-04-24T11:13:17;100925.03;;;12.15;76.32
76632;BME280;65526;48.578;-4.520;2023-04-24T11:18:59;100771.25;;;11.50;74.89
76632;BME280;65526;48.578;-4.520;2023-04-24T11:21:40;101111.38;;;13.28;73.85
76632;BME280;65526;48.578;-4.520;2023-04-24T11:24:30;101055.66;;;13.32;74.62
76632;BME280;65526;48.578;-4.520;2023-04-24T11:30:02;100828.09;;;11.77;75.66
76632;BME280;65526;48.578;-4.520;2023-04-24T11:35:02;101061.88;;;13.25;76.48
76632;BME280;65526;48.578;-4.520;2023-04-24T11:40:00;101053.09;;;13.11;76.26
76632;BME280;65526;48.578;-4.520;2023-04-24T11:42:27;100810.34;;;11.02;76.24
76632;BME280;65526;48.578;-4.520;2023-04-24T11:44:55;100655.59;;;10.54;76.77
76632;BME280;65526;48.578;-4.520;2023-04-24T11:47:31;100271.72;;;7.96;75.71
76632;BME280;65526;48.578;-4.520;2023-04-24T11:50:00;100577.44;;;9.91;77.81
76632;BME280;65526;48.578;-4.520;2023-04-24T11:52:27;100554.94;;;9.44;76.91
76632;BME280;65526;48.578;-4.520;2023-04-24T11:54:54;101064.50;;;12.90;76.86
76632;BME280;65526;48.578;-4.520;2023-04-24T11:57:24;100461.00;;;8.94;75.78
76632;BME280;65526;48.578;-4.520;2023-04-24T11:59:52;100591.69;;;9.89;76.30
76632;BME280;65526;48.578;-4.520;2023-04-24T12:02:26;100596.19;;;9.58;76.40
76632;BME280;65526;48.578;-4.520;2023-04-24T12:04:53;100788.22;;;11.33;76.21
76632;BME280;65526;48.578;-4.520;2023-04-24T12:07:21;100648.78;;;10.39;76.42
76632;BME280;65526;48.578;-4.520;2023-04-24T12:09:54;100602.19;;;10.08;75.10
76632;BME280;65526;48.578;-4.520;2023-04-24T12:12:24;101086.47;;;13.07;74.50
76632;BME280;65526;48.578;-4.520;2023-04-24T12:14:57;100590.75;;;10.10;74.38
76632;BME280;65526;48.578;-4.520;2023-04-24T12:17:30;101090.47;;;13.22;75.53
76632;BME280;65526;48.578;-4.520;2023-04-24T12:20:01;100912.19;;;11.83;74.48
76632;BME280;65526;48.578;-4.520;2023-04-24T12:22:57;100448.88;;;8.98;74.82
76632;BME280;65526;48.578;-4.520;2023-04-24T12:25:29;100249.41;;;8.13;75.29
76632;BME280;65526;48.578;-4.520;2023-04-24T12:28:16;100295.34;;;8.51;75.25
76632;BME280;65526;48.578;-4.520;2023-04-24T12:30:45;101056.81;;;13.31;76.48
76632;BME280;65526;48.578;-4.520;2023-04-24T12:33:18;100766.00;;;11.21;75.25
76632;BME280;65526;48.578;-4.520;2023-04-24T12:35:48;100554.81;;;10.41;76.52
76632;BME280;65526;48.578;-4.520;2023-04-24T12:38:15;100758.47;;;11.77;76.66
76632;BME280;65526;48.578;-4.520;2023-04-24T12:40:42;100558.81;;;10.56;74.67
76632;BME280;65526;48.578;-4.520;2023-04-24T12:43:19;100819.31;;;11.91;75.53
76632;BME280;65526;48.578;-4.520;2023-04-24T12:45:46;100802.88;;;12.02;75.03
76632;BME280;65526;48.578;-4.520;2023-04-24T12:48:13;100766.72;;;11.74;76.29
76632;BME280;65526;48.578;-4.520;2023-04-24T12:50:43;100478.78;;;10.33;75.83
76632;BME280;65526;48.578;-4.520;2023-04-24T12:53:10;100525.28;;;10.64;74.52
76632;BME280;65526;48.578;-4.520;2023-04-24T12:55:36;100847.03;;;12.47;74.54
76632;BME280;65526;48.578;-4.520;2023-04-24T12:58:03;100815.09;;;12.60;75.21
76632;BME280;65526;48.578;-4.520;2023-04-24T13:00:29;100464.88;;;10.06;73.19
76632;BME280;65526;48.578;-4.520;2023-04-24T13:02:56;100904.84;;;12.81;73.70
76632;BME280;65526;48.578;-4.520;2023-04-24T13:05:22;100590.69;;;11.18;73.97
76632;BME280;65526;48.578;-4.520;2023-04-24T13:07:48;100702.59;;;11.27;73.91
76632;BME280;65526;48.578;-4.520;2023-04-24T13:10:15;101038.63;;;13.87;75.02